createdAt,value
2023-02-16T00:01:13.041Z,3.77
2023-02-16T00:03:39.471Z,3.76
2023-02-16T00:06:06.443Z,3.74
2023-02-16T00:08:32.858Z,3.75
2023-02-16T00:11:17.818Z,3.72
2023-02-16T00:13:44.522Z,3.67
2023-02-16T00:16:14.615Z,3.70
2023-02-16T00:18:41.103Z,3.72
2023-02-16T00:21:07.568Z,3.73
2023-02-16T00:23:33.988Z,3.71
2023-02-16T00:26:00.395Z,3.71
2023-02-16T00:28:26.810Z,3.71
2023-02-16T00:30:53.310Z,3.72
2023-02-16T00:33:21.600Z,3.70
2023-02-16T00:35:48.708Z,3.65
2023-02-16T00:38:15.307Z,3.64
2023-02-16T00:40:42.816Z,3.64
2023-02-16T00:43:21.736Z,3.62
2023-02-16T00:45:48.477Z,3.63
2023-02-16T00:48:15.087Z,3.65
2023-02-16T00:50:41.635Z,3.61
2023-02-16T00:53:08.054Z,3.59
2023-02-16T00:55:36.423Z,3.56
2023-02-16T00:58:22.250Z,3.57
2023-02-16T01:00:54.737Z,3.57
2023-02-16T01:03:24.694Z,3.56
2023-02-16T01:06:11.321Z,3.58
2023-02-16T01:08:58.033Z,3.59
2023-02-16T01:11:25.679Z,3.63
2023-02-16T01:13:54.637Z,3.60
2023-02-16T01:16:25.044Z,3.58
2023-02-16T01:18:52.596Z,3.56
2023-02-16T01:21:19.440Z,3.54
2023-02-16T01:23:45.821Z,3.54
2023-02-16T01:26:17.610Z,3.53
2023-02-16T01:28:44.709Z,3.51
2023-02-16T01:31:12.343Z,3.46
2023-02-16T01:33:39.282Z,3.43
2023-02-16T01:36:19.846Z,3.41
2023-02-16T01:38:46.323Z,3.36
2023-02-16T01:41:45.400Z,3.34
2023-02-16T01:44:23.808Z,3.32
2023-02-16T01:46:57.283Z,3.30
2023-02-16T01:49:23.841Z,3.32
2023-02-16T01:51:56.779Z,3.35
2023-02-16T01:54:31.357Z,3.34
2023-02-16T01:57:09.881Z,3.38
2023-02-16T01:59:56.525Z,3.40
2023-02-16T02:02:35.656Z,3.39
2023-02-16T02:05:37.197Z,3.42
2023-02-16T02:08:09.657Z,3.46
2023-02-16T02:10:48.061Z,3.49
2023-02-16T02:13:26.592Z,3.52
2023-02-16T02:15:53.698Z,3.54
2023-02-16T02:18:20.267Z,3.60
2023-02-16T02:21:34.618Z,3.63
2023-02-16T02:24:16.627Z,3.71
2023-02-16T02:27:07.583Z,3.75
2023-02-16T02:29:40.093Z,3.78
2023-02-16T02:32:50.666Z,3.82
2023-02-16T02:35:49.630Z,3.86
2023-02-16T02:38:34.919Z,3.88
2023-02-16T02:41:17.837Z,3.90
2023-02-16T02:43:50.697Z,3.92
2023-02-16T02:46:32.003Z,3.94
2023-02-16T02:48:58.550Z,3.96
2023-02-16T02:51:30.791Z,3.95
2023-02-16T02:54:22.016Z,3.93
2023-02-16T02:57:23.035Z,3.95
2023-02-16T03:00:41.953Z,3.95
2023-02-16T03:03:14.560Z,4.00
2023-02-16T03:05:45.487Z,4.00
2023-02-16T03:08:17.539Z,4.02
2023-02-16T03:11:07.972Z,4.04
2023-02-16T03:13:41.782Z,3.99
2023-02-16T03:16:16.807Z,3.98
2023-02-16T03:19:05.181Z,3.97
2023-02-16T03:21:52.501Z,3.97
2023-02-16T03:24:42.726Z,3.99
2023-02-16T03:27:27.765Z,3.99
2023-02-16T03:29:56.652Z,4.02
2023-02-16T03:32:23.430Z,4.04
2023-02-16T03:34:50.062Z,4.10
2023-02-16T03:37:16.701Z,4.10
2023-02-16T03:40:02.035Z,4.12
2023-02-16T03:42:28.486Z,4.15
2023-02-16T03:44:55.007Z,4.18
2023-02-16T03:47:21.452Z,4.19
2023-02-16T03:49:48.796Z,4.18
2023-02-16T03:52:15.320Z,4.24
2023-02-16T03:54:41.798Z,4.24
2023-02-16T03:57:08.268Z,4.25
2023-02-16T03:59:34.805Z,4.28
2023-02-16T04:02:01.370Z,4.30
2023-02-16T04:04:27.876Z,4.32
2023-02-16T04:06:54.380Z,4.33
2023-02-16T04:09:20.829Z,4.35
2023-02-16T04:12:05.618Z,4.36
2023-02-16T04:14:32.466Z,4.38
2023-02-16T04:16:58.956Z,4.36
2023-02-16T04:19:25.458Z,4.39
2023-02-16T04:21:54.834Z,4.39
2023-02-16T04:24:21.344Z,4.42
2023-02-16T04:26:49.436Z,4.45
2023-02-16T04:29:16.203Z,4.45
2023-02-16T04:31:43.100Z,4.45
2023-02-16T04:34:09.576Z,4.44
2023-02-16T04:36:35.969Z,4.46
2023-02-16T04:39:02.451Z,4.46
2023-02-16T04:41:28.968Z,4.45
2023-02-16T04:43:55.385Z,4.47
2023-02-16T04:46:21.887Z,4.47
2023-02-16T04:48:48.386Z,4.51
2023-02-16T04:51:14.922Z,4.51
2023-02-16T04:53:41.491Z,4.52
2023-02-16T04:56:12.115Z,4.50
2023-02-16T04:58:38.732Z,4.50
2023-02-16T05:01:05.842Z,4.48
2023-02-16T05:03:33.328Z,4.49
2023-02-16T05:05:59.977Z,4.52
2023-02-16T05:08:27.026Z,4.54
2023-02-16T05:11:12.137Z,4.55
2023-02-16T05:13:57.022Z,4.57
2023-02-16T05:16:24.561Z,4.58
2023-02-16T05:18:51.079Z,4.58
2023-02-16T05:21:32.577Z,4.58
2023-02-16T05:24:04.977Z,4.59
2023-02-16T05:26:32.889Z,4.61
2023-02-16T05:28:59.848Z,4.62
2023-02-16T05:31:27.307Z,4.60
2023-02-16T05:33:54.154Z,4.57
2023-02-16T05:36:21.460Z,4.60
2023-02-16T05:38:47.921Z,4.60
2023-02-16T05:41:23.541Z,4.60
2023-02-16T05:43:51.043Z,4.56
2023-02-16T05:46:17.505Z,4.57
2023-02-16T05:48:44.068Z,4.57
2023-02-16T05:51:10.553Z,4.56
2023-02-16T05:53:36.959Z,4.58
2023-02-16T05:56:04.366Z,4.57
2023-02-16T05:58:31.927Z,4.55
2023-02-16T06:00:58.440Z,4.58
2023-02-16T06:03:25.566Z,4.58
2023-02-16T06:05:57.211Z,4.60
2023-02-16T06:08:24.277Z,4.58
2023-02-16T06:10:52.308Z,4.55
2023-02-16T06:13:19.537Z,4.54
2023-02-16T06:15:46.990Z,4.55
2023-02-16T06:18:14.342Z,4.53
2023-02-16T06:20:41.821Z,4.52
2023-02-16T06:23:11.214Z,4.54
2023-02-16T06:25:37.909Z,4.55
2023-02-16T06:28:04.794Z,4.53
2023-02-16T06:30:31.501Z,4.53
2023-02-16T06:32:58.194Z,4.52
2023-02-16T06:35:24.694Z,4.52
2023-02-16T06:37:51.487Z,4.53
2023-02-16T06:40:18.168Z,4.55
2023-02-16T06:42:45.093Z,4.56
2023-02-16T06:45:12.069Z,4.55
2023-02-16T06:47:38.867Z,4.57
2023-02-16T06:50:09.741Z,4.59
2023-02-16T06:52:36.914Z,4.60
2023-02-16T06:55:04.038Z,4.63
2023-02-16T06:57:30.483Z,4.63
2023-02-16T06:59:57.325Z,4.66
2023-02-16T07:02:23.804Z,4.67
2023-02-16T07:04:50.331Z,4.66
2023-02-16T07:07:16.809Z,4.69
2023-02-16T07:09:43.150Z,4.71
2023-02-16T07:12:09.543Z,4.75
2023-02-16T07:14:36.195Z,4.76
2023-02-16T07:17:04.366Z,4.79
2023-02-16T07:19:34.184Z,4.83
2023-02-16T07:22:01.508Z,4.86
2023-02-16T07:24:28.140Z,4.87
2023-02-16T07:26:55.604Z,4.91
2023-02-16T07:29:22.612Z,4.94
2023-02-16T07:31:49.211Z,4.97
2023-02-16T07:34:15.685Z,5.01
2023-02-16T07:36:42.383Z,5.01
2023-02-16T07:39:08.793Z,5.04
2023-02-16T07:41:35.323Z,5.07
2023-02-16T07:44:01.812Z,5.10
2023-02-16T07:46:28.317Z,5.11
2023-02-16T07:48:54.760Z,5.15
2023-02-16T07:51:23.591Z,5.18
2023-02-16T07:53:50.385Z,5.19
2023-02-16T07:56:28.705Z,5.20
2023-02-16T07:58:56.816Z,5.20
2023-02-16T08:01:24.063Z,5.23
2023-02-16T08:03:51.214Z,5.24
2023-02-16T08:06:18.287Z,5.28
2023-02-16T08:08:45.506Z,5.30
2023-02-16T08:11:24.277Z,5.34
2023-02-16T08:13:51.239Z,5.37
2023-02-16T08:16:21.178Z,5.40
2023-02-16T08:18:47.642Z,5.43
2023-02-16T08:21:16.901Z,5.47
2023-02-16T08:23:47.712Z,5.50
2023-02-16T08:26:17.324Z,5.55
2023-02-16T08:28:47.678Z,5.59
2023-02-16T08:31:23.230Z,5.62
2023-02-16T08:33:51.312Z,5.65
2023-02-16T08:36:24.918Z,5.67
2023-02-16T08:38:53.458Z,5.69
2023-02-16T08:41:21.709Z,5.72
2023-02-16T08:43:49.146Z,5.74
2023-02-16T08:46:16.543Z,5.75
2023-02-16T08:48:45.161Z,5.75
2023-02-16T08:51:21.420Z,5.79
2023-02-16T08:53:48.045Z,5.80
2023-02-16T08:56:16.648Z,5.81
2023-02-16T08:58:45.617Z,5.82
2023-02-16T09:01:13.981Z,5.85
2023-02-16T09:03:42.796Z,5.87
2023-02-16T09:06:12.256Z,5.88
2023-02-16T09:08:39.877Z,5.92
2023-02-16T09:11:10.896Z,5.92
2023-02-16T09:13:38.639Z,5.93
2023-02-16T09:16:10.689Z,5.92
2023-02-16T09:18:38.405Z,5.89
2023-02-16T09:21:06.913Z,5.87
2023-02-16T09:23:40.229Z,5.82
2023-02-16T09:26:09.645Z,5.79
2023-02-16T09:28:38.126Z,5.77
2023-02-16T09:31:17.734Z,5.75
2023-02-16T09:33:44.335Z,5.73
2023-02-16T09:36:12.462Z,5.73
2023-02-16T09:38:39.769Z,5.75
2023-02-16T09:41:36.755Z,5.77
2023-02-16T09:44:33.806Z,5.79
2023-02-16T09:47:04.880Z,5.82
2023-02-16T09:49:45.108Z,5.86
2023-02-16T09:52:37.469Z,5.90
2023-02-16T09:55:20.711Z,5.94
2023-02-16T09:58:20.383Z,5.90
2023-02-16T10:00:57.314Z,5.89
2023-02-16T10:03:37.240Z,5.88
2023-02-16T10:06:28.418Z,5.85
2023-02-16T10:09:09.809Z,5.84
2023-02-16T10:11:38.740Z,5.83
2023-02-16T10:14:07.903Z,5.83
2023-02-16T10:16:42.679Z,5.84
2023-02-16T10:19:32.871Z,5.85
2023-02-16T10:22:05.928Z,5.87
2023-02-16T10:24:44.103Z,5.93
2023-02-16T10:27:16.603Z,5.99
2023-02-16T10:29:43.334Z,6.06
2023-02-16T10:32:26.116Z,6.13
2023-02-16T10:35:17.254Z,6.24
2023-02-16T10:37:57.948Z,6.32
2023-02-16T10:40:51.342Z,6.38
2023-02-16T10:43:39.624Z,6.45
2023-02-16T10:46:06.939Z,6.52
2023-02-16T10:48:33.858Z,6.59
2023-02-16T10:51:15.154Z,6.70
2023-02-16T10:53:54.855Z,6.77
2023-02-16T10:56:41.150Z,6.82
2023-02-16T10:59:16.388Z,6.85
2023-02-16T11:01:46.613Z,6.89
2023-02-16T11:04:29.673Z,6.91
2023-02-16T11:07:23.817Z,6.96
2023-02-16T11:09:55.435Z,7.05
2023-02-16T11:12:24.823Z,7.13
2023-02-16T11:14:59.984Z,7.18
2023-02-16T11:17:27.008Z,7.24
2023-02-16T11:20:05.753Z,7.24
2023-02-16T11:22:38.003Z,7.28
2023-02-16T11:25:22.699Z,7.28
2023-02-16T11:27:56.075Z,7.30
2023-02-16T11:30:35.144Z,7.34
2023-02-16T11:33:04.507Z,7.36
2023-02-16T11:35:40.867Z,7.37
2023-02-16T11:38:25.818Z,7.40
2023-02-16T11:40:53.464Z,7.44
2023-02-16T11:43:20.633Z,7.50
2023-02-16T11:45:59.726Z,7.60
2023-02-16T11:48:32.797Z,7.68
2023-02-16T11:51:03.211Z,7.68
2023-02-16T11:53:33.974Z,7.69
2023-02-16T11:56:23.428Z,7.74
2023-02-16T11:59:21.735Z,7.77
2023-02-16T12:02:25.466Z,7.83
2023-02-16T12:05:15.099Z,7.90
2023-02-16T12:08:07.630Z,7.97
2023-02-16T12:10:48.990Z,7.99
2023-02-16T12:13:28.510Z,8.05
2023-02-16T12:16:03.610Z,8.17
2023-02-16T12:18:34.223Z,8.29
2023-02-16T12:21:20.145Z,8.34
2023-02-16T12:24:22.703Z,8.47
2023-02-16T12:26:54.784Z,8.55
2023-02-16T12:29:56.085Z,8.64
2023-02-16T12:33:01.031Z,8.85
2023-02-16T12:35:46.104Z,9.05
2023-02-16T12:38:46.438Z,9.24
2023-02-16T12:41:25.282Z,9.25
2023-02-16T12:44:03.779Z,9.29
2023-02-16T12:46:40.966Z,9.36
2023-02-16T12:49:27.508Z,9.34
2023-02-16T12:51:59.200Z,9.31
2023-02-16T12:54:45.048Z,9.37
2023-02-16T12:57:15.751Z,9.51
2023-02-16T12:59:49.164Z,9.58
2023-02-16T13:02:24.852Z,9.70
2023-02-16T13:05:21.200Z,9.70
2023-02-16T13:07:52.806Z,9.74
2023-02-16T13:10:36.289Z,9.75
2023-02-16T13:13:09.589Z,9.67
2023-02-16T13:15:43.484Z,9.53
2023-02-16T13:18:22.556Z,9.51
2023-02-16T13:20:55.713Z,9.54
2023-02-16T13:23:44.828Z,9.57
2023-02-16T13:26:40.883Z,9.54
2023-02-16T13:29:26.204Z,9.53
2023-02-16T13:32:09.290Z,9.53
2023-02-16T13:34:50.379Z,9.54
2023-02-16T13:37:16.718Z,9.58
2023-02-16T13:39:52.143Z,9.65
2023-02-16T13:42:49.570Z,9.71
2023-02-16T13:45:23.346Z,9.76
2023-02-16T13:47:53.192Z,9.81
2023-02-16T13:50:23.058Z,9.85
2023-02-16T13:52:52.150Z,9.90
2023-02-16T13:55:26.302Z,9.88
2023-02-16T13:58:26.462Z,9.84
2023-02-16T14:00:53.218Z,9.84
2023-02-16T14:03:21.090Z,9.79
2023-02-16T14:05:50.774Z,9.80
2023-02-16T14:08:25.465Z,9.79
2023-02-16T14:10:55.329Z,9.78
2023-02-16T14:13:43.431Z,9.81
2023-02-16T14:16:26.613Z,9.87
2023-02-16T14:19:21.198Z,9.92
2023-02-16T14:21:49.636Z,9.94
2023-02-16T14:24:31.367Z,9.95
2023-02-16T14:27:01.068Z,9.97
2023-02-16T14:29:32.272Z,10.01
2023-02-16T14:32:05.419Z,10.03
2023-02-16T14:34:40.655Z,10.06
2023-02-16T14:37:16.219Z,10.12
2023-02-16T14:40:07.052Z,10.13
2023-02-16T14:42:35.900Z,10.16
2023-02-16T14:45:29.965Z,10.19
2023-02-16T14:48:25.571Z,10.19
2023-02-16T14:51:10.186Z,10.14
2023-02-16T14:54:10.785Z,10.10
2023-02-16T14:56:42.033Z,10.08
2023-02-16T14:59:26.567Z,10.07
2023-02-16T15:01:53.093Z,10.04
2023-02-16T15:04:33.048Z,10.01
2023-02-16T15:07:03.835Z,10.00
2023-02-16T15:09:33.437Z,10.01
2023-02-16T15:12:23.298Z,10.02
2023-02-16T15:15:01.115Z,10.02
2023-02-16T15:17:36.530Z,9.94
2023-02-16T15:20:19.891Z,9.86
2023-02-16T15:22:55.168Z,9.79
2023-02-16T15:25:28.241Z,9.69
2023-02-16T15:28:00.213Z,9.64
2023-02-16T15:30:48.377Z,9.59
2023-02-16T15:33:23.924Z,9.55
2023-02-16T15:36:13.333Z,9.47
2023-02-16T15:38:43.225Z,9.39
2023-02-16T15:41:14.301Z,9.34
2023-02-16T15:43:48.091Z,9.29
2023-02-16T15:46:24.819Z,9.25
2023-02-16T15:48:51.270Z,9.23
2023-02-16T15:51:31.509Z,9.19
2023-02-16T15:54:19.563Z,9.14
2023-02-16T15:56:48.400Z,9.10
2023-02-16T15:59:40.956Z,9.07
2023-02-16T16:02:14.830Z,9.04
2023-02-16T16:04:44.511Z,9.01
2023-02-16T16:07:24.144Z,8.96
2023-02-16T16:09:51.233Z,8.91
2023-02-16T16:12:19.956Z,8.87
2023-02-16T16:14:51.828Z,8.85
2023-02-16T16:17:24.286Z,8.82
2023-02-16T16:19:51.394Z,8.80
2023-02-16T16:22:26.943Z,8.77
2023-02-16T16:24:53.468Z,8.75
2023-02-16T16:27:29.161Z,8.72
2023-02-16T16:30:32.031Z,8.69
2023-02-16T16:33:11.812Z,8.66
2023-02-16T16:35:47.680Z,8.64
2023-02-16T16:38:29.202Z,8.63
2023-02-16T16:40:59.132Z,8.62
2023-02-16T16:43:31.930Z,8.60
2023-02-16T16:46:25.788Z,8.59
2023-02-16T16:48:55.106Z,8.55
2023-02-16T16:51:38.458Z,8.55
2023-02-16T16:54:23.773Z,8.51
2023-02-16T16:56:50.609Z,8.49
2023-02-16T16:59:17.011Z,8.47
2023-02-16T17:01:46.049Z,8.47
2023-02-16T17:04:12.496Z,8.48
2023-02-16T17:06:38.887Z,8.47
2023-02-16T17:09:05.734Z,8.46
2023-02-16T17:11:35.112Z,8.47
2023-02-16T17:14:20.939Z,8.47
2023-02-16T17:16:52.798Z,8.48
2023-02-16T17:19:21.291Z,8.48
2023-02-16T17:21:48.399Z,8.50
2023-02-16T17:24:15.470Z,8.50
2023-02-16T17:26:42.086Z,8.50
2023-02-16T17:29:08.539Z,8.50
2023-02-16T17:31:35.260Z,8.51
2023-02-16T17:34:01.758Z,8.51
2023-02-16T17:36:28.284Z,8.50
2023-02-16T17:38:55.008Z,8.52
2023-02-16T17:41:24.845Z,8.50
2023-02-16T17:43:51.659Z,8.52
2023-02-16T17:46:19.565Z,8.53
2023-02-16T17:48:51.624Z,8.53
2023-02-16T17:51:20.198Z,8.53
2023-02-16T17:53:46.588Z,8.53
2023-02-16T17:56:14.895Z,8.55
2023-02-16T17:58:41.702Z,8.54
2023-02-16T18:01:12.809Z,8.55
2023-02-16T18:03:39.290Z,8.53
2023-02-16T18:06:06.238Z,8.53
2023-02-16T18:08:32.877Z,8.54
2023-02-16T18:11:02.133Z,8.53
2023-02-16T18:13:29.823Z,8.53
2023-02-16T18:15:58.421Z,8.53
2023-02-16T18:18:24.978Z,8.53
2023-02-16T18:20:51.553Z,8.53
2023-02-16T18:23:17.919Z,8.53
2023-02-16T18:25:44.469Z,8.54
2023-02-16T18:28:14.683Z,8.54
2023-02-16T18:30:41.633Z,8.53
2023-02-16T18:33:08.055Z,8.53
2023-02-16T18:35:34.503Z,8.53
2023-02-16T18:38:00.868Z,8.53
2023-02-16T18:40:27.390Z,8.55
2023-02-16T18:42:53.855Z,8.55
2023-02-16T18:45:20.444Z,8.56
2023-02-16T18:47:46.880Z,8.56
2023-02-16T18:50:13.597Z,8.56
2023-02-16T18:52:42.390Z,8.58
2023-02-16T18:55:09.839Z,8.56
2023-02-16T18:57:36.279Z,8.58
2023-02-16T19:00:05.496Z,8.59
2023-02-16T19:02:32.206Z,8.59
2023-02-16T19:04:58.727Z,8.58
2023-02-16T19:07:25.169Z,8.58
2023-02-16T19:09:51.715Z,8.56
2023-02-16T19:12:18.269Z,8.59
2023-02-16T19:14:44.719Z,8.59
2023-02-16T19:17:11.242Z,8.59
2023-02-16T19:19:38.396Z,8.60
2023-02-16T19:22:05.170Z,8.60
2023-02-16T19:24:31.661Z,8.60
2023-02-16T19:26:58.091Z,8.61
2023-02-16T19:29:24.447Z,8.59
2023-02-16T19:31:50.959Z,8.60
2023-02-16T19:34:17.476Z,8.61
2023-02-16T19:36:44.031Z,8.61
2023-02-16T19:39:12.012Z,8.61
2023-02-16T19:41:41.200Z,8.61
2023-02-16T19:44:07.615Z,8.61
2023-02-16T19:46:35.338Z,8.62
2023-02-16T19:49:02.346Z,8.62
2023-02-16T19:51:28.931Z,8.60
2023-02-16T19:53:55.359Z,8.62
2023-02-16T19:56:24.936Z,8.62
2023-02-16T19:58:52.531Z,8.61
2023-02-16T20:01:25.054Z,8.62
2023-02-16T20:03:52.254Z,8.63
2023-02-16T20:06:22.330Z,8.63
2023-02-16T20:08:50.556Z,8.63
2023-02-16T20:11:20.562Z,8.64
2023-02-16T20:13:47.566Z,8.66
2023-02-16T20:16:15.896Z,8.66
2023-02-16T20:18:42.460Z,8.69
2023-02-16T20:21:15.101Z,8.69
2023-02-16T20:23:42.202Z,8.69
2023-02-16T20:26:12.624Z,8.69
2023-02-16T20:28:39.810Z,8.69
2023-02-16T20:31:16.265Z,8.70
2023-02-16T20:33:42.918Z,8.71
2023-02-16T20:36:11.336Z,8.72
2023-02-16T20:38:38.375Z,8.74
2023-02-16T20:41:04.904Z,8.75
2023-02-16T20:43:32.376Z,8.77
2023-02-16T20:45:59.967Z,8.79
2023-02-16T20:48:26.399Z,8.80
2023-02-16T20:50:58.064Z,8.81
2023-02-16T20:53:25.562Z,8.81
2023-02-16T20:56:28.692Z,8.81
2023-02-16T20:58:56.996Z,8.84
2023-02-16T21:01:30.724Z,8.85
2023-02-16T21:03:58.815Z,8.87
2023-02-16T21:06:26.399Z,8.87
2023-02-16T21:08:52.783Z,8.88
2023-02-16T21:11:19.351Z,8.88
2023-02-16T21:13:45.952Z,8.88
2023-02-16T21:16:13.889Z,8.91
2023-02-16T21:18:41.628Z,8.91
2023-02-16T21:21:09.592Z,8.92
2023-02-16T21:23:36.085Z,8.90
2023-02-16T21:26:05.365Z,8.91
2023-02-16T21:28:32.262Z,8.91
2023-02-16T21:31:03.533Z,8.91
2023-02-16T21:33:29.975Z,8.91
2023-02-16T21:36:05.545Z,8.91
2023-02-16T21:38:32.482Z,8.92
2023-02-16T21:41:31.760Z,8.92
2023-02-16T21:44:01.381Z,8.93
2023-02-16T21:46:31.338Z,8.93
2023-02-16T21:48:58.399Z,8.95
2023-02-16T21:51:30.080Z,8.95
2023-02-16T21:53:57.692Z,8.96
2023-02-16T21:56:35.213Z,8.95
2023-02-16T21:59:02.536Z,8.95
2023-02-16T22:01:35.286Z,8.94
2023-02-16T22:04:02.628Z,8.94
2023-02-16T22:06:35.362Z,8.94
2023-02-16T22:09:06.692Z,8.94
2023-02-16T22:11:33.160Z,8.92
2023-02-16T22:14:00.785Z,8.94
2023-02-16T22:16:29.181Z,8.94
2023-02-16T22:19:07.165Z,8.96
2023-02-16T22:21:36.877Z,8.98
2023-02-16T22:24:03.532Z,8.97
2023-02-16T22:26:32.390Z,8.97
2023-02-16T22:29:03.446Z,8.97
2023-02-16T22:31:30.194Z,8.96
2023-02-16T22:34:01.751Z,8.97
2023-02-16T22:36:29.003Z,8.96
2023-02-16T22:38:55.708Z,8.96
2023-02-16T22:41:23.243Z,8.93
2023-02-16T22:43:57.245Z,8.93
2023-02-16T22:46:24.204Z,8.90
2023-02-16T22:48:51.850Z,8.91
2023-02-16T22:51:20.178Z,8.91
2023-02-16T22:53:46.983Z,8.93
2023-02-16T22:56:16.585Z,8.92
2023-02-16T22:58:43.660Z,8.92
2023-02-16T23:01:13.105Z,8.93
2023-02-16T23:03:39.743Z,8.92
2023-02-16T23:06:15.021Z,8.93
2023-02-16T23:08:42.646Z,8.93
2023-02-16T23:11:09.057Z,8.91
2023-02-16T23:13:35.572Z,8.91
2023-02-16T23:16:13.841Z,8.92
2023-02-16T23:18:41.282Z,8.90
2023-02-16T23:21:22.896Z,8.88
2023-02-16T23:23:50.988Z,8.87
2023-02-16T23:26:19.037Z,8.88
2023-02-16T23:28:45.516Z,8.87
2023-02-16T23:31:15.040Z,8.85
2023-02-16T23:33:41.612Z,8.88
2023-02-16T23:36:08.638Z,8.90
2023-02-16T23:38:35.484Z,8.91
2023-02-16T23:41:08.048Z,8.93
2023-02-16T23:43:34.849Z,8.97
2023-02-16T23:46:01.652Z,8.97
2023-02-16T23:48:28.774Z,8.93
2023-02-16T23:50:55.703Z,8.94
2023-02-16T23:53:23.693Z,8.93
2023-02-16T23:56:08.569Z,8.90
2023-02-16T23:58:42.952Z,8.91
